Latest Coastal Weather Observations for Cape Willoughby

IDS60701

Issued at 7:11 am CDT Saturday 13 February 2016 (issued every 10 minutes, with the page automatically refreshed every 10 minutes)

About coastal observations | Map of coastal stations | Coastal observations for SA | Marine services | Other Formats
Station Details ID: 022803 Name: CAPE WILLOUGHBY Lat: -35.84 Lon: 138.13 Height: 55.0 m
Data from the previous 72 hours. | See also: Recent months at Cape Willoughby
Date/Time
CDT
Temp

°C
Wind Pressure Rain
since 9am
mm
Weather Cloud Vis
km
Sea
Height
m
Swell
Dir
 
Speed
knots
Gust
knots
hPa Trend Height
m
Period
s
Dir
13/07:00am 16.6 WNW 5 6 1010.9 - - - - - - - - -
13/06:30am 17.3 W 8 11 1011.2 - - - - - - - - -
13/06:00am 17.5 W 8 11 1010.7 - - - - - - - - -
13/05:30am 16.8 WNW 8 10 1010.5 - - - - - - - - -
13/05:00am 17.5 WSW 5 7 1010.4 - - - - - - - - -
13/04:30am 18.4 WSW 7 11 1010.3 - - - - - - - - -
13/04:00am 18.3 WNW 1 5 1010.4 - - - - - - - - -
13/03:30am 18.1 W 4 5 1010.5 - - - - - - - - -
13/03:00am 18.2 NNE 4 7 1010.2 - 0.0 - - - - - - -
13/02:30am 18.0 NW 4 6 1010.9 - - - - - - - - -
13/02:00am 18.8 NW 5 8 1010.9 - - - - - - - - -
13/01:30am 18.9 NNW 6 11 1010.8 - - - - - - - - -
13/01:00am 18.1 N 7 11 1010.8 - - - - - - - - -
13/12:30am 17.9 NNW 3 4 1011.6 - - - - - - - - -
13/12:00am 17.8 N 5 6 1011.5 - - - - - - - - -
 
Date/Time
CDT
Temp

°C
Wind Pressure Rain
since 9am
mm
Weather Cloud Vis
km
Sea
Height
m
Swell
Dir
 
Speed
knots
Gust
knots
hPa Trend Height
m
Period
s
Dir
12/11:30pm 17.7 N 5 7 1011.6 - - - - - - - - -
12/11:00pm 17.5 NNE 3 4 1012.1 - - - - - - - - -
12/10:30pm 18.0 NNE 2 3 1012.2 - - - - - - - - -
12/10:00pm 18.1 CALM 0 0 1012.1 - - - - - - - - -
12/09:30pm 18.2 CALM 0 0 1012.2 - - - - - - - - -
12/09:00pm 18.3 CALM 0 0 1012.0 - 0.0 - - - - - - -
12/08:30pm 18.1 NNE 3 4 1011.9 - - - - - - - - -
12/08:00pm 18.3 NE 4 6 1011.9 - - - - - - - - -
12/07:30pm 18.7 NE 5 6 1012.0 - - - - - - - - -
12/07:00pm 19.3 SSE 4 5 1012.5 - - - - - - - - -
12/06:30pm 18.9 S 8 10 1012.4 - - - - - - - - -
12/06:00pm 19.0 S 10 13 1012.5 - - - - - - - - -
12/05:30pm 19.2 S 12 15 1012.6 - - - - - - - - -
12/05:00pm 19.7 S 10 12 1012.6 - - - - - - - - -
12/04:30pm 19.7 SSE 6 7 1012.8 - - - - - - - - -
12/04:00pm 19.8 SSE 7 8 1012.9 - - - - - - - - -
12/03:30pm 19.6 SSE 6 7 1013.2 - - - - - - - - -
12/03:00pm 20.0 SSE 6 7 1013.4 - - - - - - - - -
12/02:30pm 20.6 SE 5 6 1013.6 - 0.0 - - - - - - -
12/02:00pm 20.6 SE 5 6 1013.9 - 0.0 - - - - - - -
12/01:30pm 20.6 SE 5 6 1014.1 - 0.0 - - - - - - -
12/01:00pm 20.2 E 5 6 1014.4 - 0.0 - - - - - - -
12/12:30pm 19.7 E 5 6 1014.8 - 0.0 - - - - - - -
12/12:00pm 19.6 ESE 5 6 1015.0 - 0.0 - - - - - - -
12/11:30am 19.4 ESE 5 6 1015.4 - 0.0 - - - - - - -
12/11:00am 19.9 ESE 4 6 1015.7 - 0.0 - - - - - - -
12/10:30am 19.6 ESE 5 7 1015.9 - 0.0 - - - - - - -
12/10:00am 19.4 ESE 7 8 1016.0 - 0.0 - - - - - - -
12/09:30am 19.1 E 6 8 1016.2 - 0.0 - - - - - - -
12/09:00am 18.6 E 8 9 1016.3 - - - - - - - - -
12/08:30am 18.0 E 10 12 1016.2 - - - - - - - - -
12/08:00am 18.0 E 10 12 1016.2 - - - - - - - - -
12/07:00am 17.1 ESE 13 15 1015.7 - 0.0 - - - - - - -
12/06:30am 17.2 ESE 14 18 1015.5 - 0.0 - - - - - - -
12/06:00am 17.3 ESE 15 18 1015.3 - 0.0 - - - - - - -
12/05:30am 17.2 SE 16 19 1015.3 - 0.0 - - - - - - -
12/05:00am 17.3 SE 16 19 1015.4 - 0.0 - - - - - - -
12/04:30am 17.4 SE 17 21 1015.3 - 0.0 - - - - - - -
12/04:00am 17.6 SE 18 21 1015.4 - 0.0 - - - - - - -
12/03:30am 17.4 SE 17 20 1015.4 - 0.0 - - - - - - -
12/03:00am 17.5 SE 16 20 1015.8 - 0.0 - - - - - - -
12/02:30am 17.5 SE 16 19 1016.0 - 0.0 - - - - - - -
12/02:00am 17.6 SE 16 19 1016.4 - 0.0 - - - - - - -
12/01:30am 17.6 SE 15 18 1016.7 - 0.0 - - - - - - -
12/01:00am 17.7 SE 15 17 1016.7 - 0.0 - - - - - - -
12/12:30am 17.9 SE 17 21 1016.9 - 0.0 - - - - - - -
12/12:00am 17.9 SE 19 21 1017.0 - 0.0 - - - - - - -
 
Date/Time
CDT
Temp

°C
Wind Pressure Rain
since 9am
mm
Weather Cloud Vis
km
Sea
Height
m
Swell
Dir
 
Speed
knots
Gust
knots
hPa Trend Height
m
Period
s
Dir
11/11:30pm 18.0 SSE 18 22 1017.0 - 0.0 - - - - - - -
11/11:00pm 18.1 SSE 19 22 1017.2 - 0.0 - - - - - - -
11/10:30pm 18.2 SSE 16 19 1017.6 - 0.0 - - - - - - -
11/10:00pm 18.4 SSE 15 18 1017.5 - 0.0 - - - - - - -
11/09:30pm 18.2 SSE 15 18 1017.5 - 0.0 - - - - - - -
11/09:00pm 18.3 SSE 16 19 1017.3 - 0.0 - - - - - - -
11/08:30pm 18.4 SSE 16 21 1017.2 - 0.0 - - - - - - -
11/08:00pm 18.4 SSE 15 18 1016.8 - 0.0 - - - - - - -
11/07:30pm 18.6 SSE 17 21 1016.8 - 0.0 - - - - - - -
11/07:00pm 18.7 SSE 15 18 1016.3 - 0.0 - - - - - - -
11/06:30pm 18.8 SSE 16 20 1016.2 - 0.0 - - - - - - -
11/06:00pm 19.0 S 18 22 1016.2 - 0.0 - - - - - - -
11/05:30pm 19.0 SSE 15 19 1016.2 - 0.0 - - - - - - -
11/05:00pm 19.1 SSE 14 17 1016.2 - 0.0 - - - - - - -
11/04:30pm 18.9 SSE 13 17 1016.1 - 0.0 - - - - - - -
11/04:00pm 19.2 SSE 13 16 1016.4 - 0.0 - - - - - - -
11/03:30pm 19.4 SSE 14 16 1016.4 - 0.0 - - - - - - -
11/03:00pm 19.3 SSE 12 15 1016.7 - 0.0 - - - - - - -
11/02:30pm 19.3 SSE 13 15 1017.0 - 0.0 - - - - - - -
11/02:00pm 19.6 SSE 14 17 1017.3 - 0.0 - - - - - - -
11/01:30pm 19.7 SSE 12 15 1017.4 - 0.0 - - - - - - -
11/01:00pm 19.8 SE 13 16 1017.4 - 0.0 - - - - - - -
11/12:30pm 20.6 SE 12 15 1017.7 - 0.0 - - - - - - -
11/12:00pm 20.0 SE 12 15 1017.8 - 0.0 - - - - - - -
11/11:30am 19.6 ESE 12 15 1017.8 - 0.0 - - - - - - -
11/11:00am 19.3 ESE 13 16 1017.9 - 0.0 - - - - - - -
11/10:30am 18.9 ESE 14 17 1017.8 - 0.0 - - - - - - -
11/10:00am 18.4 ESE 14 18 1018.0 - 0.0 - - - - - - -
11/09:30am 18.6 ESE 15 18 1018.2 - 0.0 - - - - - - -
11/09:00am 18.1 ESE 18 22 1018.2 - - - - - - - - -
11/08:30am 18.1 SE 17 21 1018.2 - - - - - - - - -
11/08:00am 17.8 SE 18 22 1018.0 - - - - - - - - -
11/07:30am 17.6 SE 17 20 1017.7 - - - - - - - - -
11/07:00am 17.6 SE 15 18 1017.4 - - - - - - - - -
11/06:30am 17.6 SE 15 17 1017.2 - - - - - - - - -
11/06:00am 17.6 SE 16 19 1016.9 - - - - - - - - -
11/05:30am 17.6 SE 15 20 1016.8 - - - - - - - - -
11/05:00am 17.6 SE 16 19 1016.5 - - - - - - - - -
11/04:30am 17.6 SE 16 19 1016.3 - - - - - - - - -
11/04:00am 17.6 SE 16 20 1016.1 - - - - - - - - -
11/03:30am 17.5 SSE 16 19 1016.1 - - - - - - - - -
11/03:00am 17.6 SSE 16 20 1016.0 - 0.0 - - - - - - -
11/02:30am 17.6 SSE 15 20 1016.1 - - - - - - - - -
11/02:00am 17.6 SSE 16 20 1016.2 - - - - - - - - -
11/01:30am 17.8 SSE 15 19 1016.5 - - - - - - - - -
11/01:00am 17.6 SSE 17 21 1016.5 - - - - - - - - -
11/12:30am 17.6 SSE 15 19 1016.6 - - - - - - - - -
11/12:00am 17.7 SSE 16 19 1016.6 - - - - - - - - -
 
Date/Time
CDT
Temp

°C
Wind Pressure Rain
since 9am
mm
Weather Cloud Vis
km
Sea
Height
m
Swell
Dir
 
Speed
knots
Gust
knots
hPa Trend Height
m
Period
s
Dir
10/11:30pm 17.6 SSE 16 20 1016.4 - - - - - - - - -
10/11:00pm 17.7 SSE 16 22 1016.5 - - - - - - - - -
10/10:30pm 17.7 SSE 16 20 1016.4 - - - - - - - - -
10/10:00pm 17.8 SSE 16 20 1016.4 - - - - - - - - -
10/09:30pm 17.9 SSE 17 21 1016.3 - - - - - - - - -
10/09:00pm 17.8 SSE 16 20 1016.4 - - - - - - - - -
10/08:30pm 17.6 SSE 14 19 1016.2 - 0.0 - - - - - - -
10/08:00pm 17.9 SSE 15 20 1016.2 - 0.0 - - - - - - -
10/07:30pm 17.8 SSE 15 19 1015.9 - 0.0 - - - - - - -
10/07:00pm 18.0 SSE 14 18 1015.9 - 0.0 - - - - - - -
10/06:30pm 18.1 SSE 14 18 1015.8 - 0.0 - - - - - - -
10/06:00pm 18.4 SSE 14 18 1015.6 - 0.0 - - - - - - -
10/05:30pm 18.4 SSE 13 17 1015.4 - 0.0 - - - - - - -
10/05:00pm 18.4 SSE 14 18 1015.3 - 0.0 - - - - - - -
10/04:30pm 18.4 SSE 15 17 1015.4 - 0.0 - - - - - - -
10/04:00pm 18.5 SSE 14 18 1015.6 - 0.0 - - - - - - -
10/03:30pm 18.4 SSE 14 18 1015.6 - 0.0 - - - - - - -
10/03:00pm 18.5 SSE 14 17 1015.9 - 0.0 - - - - - - -
10/02:30pm 18.8 SSE 14 17 1016.1 - 0.0 - - - - - - -
10/02:00pm 19.2 SE 14 17 1016.3 - 0.0 - - - - - - -
10/01:30pm 18.9 SE 15 17 1016.2 - 0.0 - - - - - - -
10/01:00pm 19.5 SE 13 16 1016.5 - 0.0 - - - - - - -
10/12:30pm 19.0 SE 14 17 1016.9 - 0.0 - - - - - - -
10/12:00pm 19.2 SE 12 15 1017.0 - 0.0 - - - - - - -
10/11:30am 19.6 SE 12 15 1017.2 - 0.0 - - - - - - -
10/11:00am 19.4 SE 12 16 1017.3 - 0.0 - - - - - - -
10/10:30am 19.2 SE 12 15 1017.3 - 0.0 - - - - - - -
10/10:00am 18.6 SE 12 15 1017.3 - 0.0 - - - - - - -
10/09:30am 18.8 SE 12 14 1017.2 - 0.0 - - - - - - -
10/09:00am 18.5 SE 11 13 1017.1 - - - - - - - - -
10/08:30am 18.0 SE 11 14 1016.8 - - - - - - - - -
10/08:00am 17.4 SE 14 17 1016.7 - - - - - - - - -
10/07:30am 16.8 SSE 15 18 1016.4 - - - - - - - - -

Other Formats:

Comma delimited format used in spreadsheet applications
http://www.bom.gov.au/fwo/IDS60701/IDS60701.94822.axf

JavaScript Object Notation format (JSON) in row-major order
http://www.bom.gov.au/fwo/IDS60701/IDS60701.94822.json